Dutch
Home     News     Corporate     Events & Tours     Flight ops     Crew centre      
My transavia virtual    Join us    Last logs    Who is flying    Software    Training    VRTS     
 

view flightdata
view flightplan
view OFP
view flightlog



flightdata:
pilot: Ed van der Linden
flight: TRA055
from: LFPO (Paris Paris Orly)
to: EHAM (Amsterdam Schiphol)
date: 05-01-2020
departure: 12:10z
arrival: 13:10z
duration: 1:00
aircraft: B738 (PHHSI)
distance: 309 NM
touchdown: -76 ft/m @ 129 KIAS



flightplan:
-(FPL-TRA055-IN
-B738/M-SDEEFGIRWXY/LB1
-LFPO1219
-N0360F250 DCT NURMO/N0360F220 UN874 VEKIN UN873 FERDI UY18 DENUT DCT
-EHAM0046 EHRD
-PBN/A1B1D1O1S2T1 DOF/200105 REG/PHHSI EET/EBUR0021 EHAA0030 SEL/GQBC RVR/200 OPR/TRA RMK/ACFT CERTIFIED NOISE STAGE 4 RMK/OCC CONTACT 0031206049999)



operational flightplan (OFP):
DISPATCH BRIEFING (TEL:
--------- --------- --------- --------- --------- --------- ---------  
PREDEPARTURE ATC CLEARANCE:
.
.
--------- --------- --------- --------- --------- --------- ---------  
OFP  1    05 JAN 20/12:04
                                    OBS  ASKY

TRA055     C/S TRA1996  LFPO/ORY   EHAM/AMS         CRZ SYS     CI 10
05 JAN 20  PH-HSI       0810/0810  0906/0911        GND DIST      239
           TAB:.....    CTOT:....  STA  0915        AIR DIST      238
                                                    AVG W/C      T002
MAXIMUM    ZFW  62731  LAW  66360  TOW  75975       AVG ISA       M03
ESTIMATED  ZFW  52674  LAW  54278  TOW  56100       F-F FACTOR    0.0
ACTUAL     ZFW  .....  LAW  .....  TOW  .....
--------- --------- --------- --------- --------- --------- ---------
TRIP        1822   0046           .....  .....
CONT         165   0005           .....  .....
ALTN         448   0010  EHRD     .....  .....  ....
FINAL        991   0030           .....  .....
ADDNL          0   0000           .....  .....
TANKERING                  
PLN TOF     3426   0131
DIFF        ....   ....
PLN TOF     ....   ....  (CORRECTED)   
EXTRA          0   ....                  
TOF         3426   ....                 
TAXI         120   ....                  
BLOCK       3546   ....        
--------- --------- --------- --------- --------- --------- ---------
REASON EXTRA FUEL      MATRIX FUEL:
O ECN-ECONAMICAL     O TMP-TEMPORARILY      O ATC-AIR TRAFFIC CNTRL
O FOB-FUEL ON.BOARD  O MSC-MISCELLANEOUS    O FPC-FLIGHT PLN CORR
O WXR-WEATHER        O TEC-TECHNICAL        ACT.CI/CRZ USED: . . .   

--------- --------- --------- --------- --------- --------- ---------

ZFW ZFW 1000 : PLN TOF   XXXXX/TRIP XXXXX 00 MIN HOLD DEST: 0 EXTRA
ZFW ZFW-1000 : PLN TOF   XXXXX/TRIP XXXXX
--------- --------- --------- --------- --------- --------- ---------
COMMANDERS NAME:                           SIGNATURE:

--------- --------- --------- --------- --------- --------- ---------
FROM:  LFPO ELEV291      TO: EHAM ELEV-11        ALTN: EHRD ELEV -14
ATC C/S     : TRA19TRA055             AVG ISA : M03
CO-ROUTE    :                        AVG TT  :   
FMC-RES FUEL: 1439                   AVG W/C : T002
CRZ ALT     : FL230                  FL310
CI          : CI 10                  FL200     119/017
                                     FL100

LFPO/24  N0360F230 DCT NURMO/N0360F220 UN874 VEKIN UN873 FERDI UY18
DENUT DCT EHAM/06

--------- --------- --------- --------- --------- --------- ---------
.
.
--------- --------- --------- --------- --------- --------- ---------
RVSM ALT CHECK:  FL:...... LEFT: ...... STBY: ...... RIGHT: ......

--------- --------- --------- --------- --------- --------- ---------
DESTINATION ALTERNATE EHRD
--------- --------- --------- --------- --------- --------- ---------

--------- --------- --------- --------- --------- --------- ---------
--------- --------- --------- --------- --------- --------- ---------
ALTERNATE SUMMARY
--------- --------- --------- --------- --------- --------- ---------
      ALTN        DIST   LVL       WC TIME  FUEL VIA
      EHRD/24       30  FL040    T006 0010   448 AMS
INFO/EHEH/21       63  FL110    H001 0017   728 LOPI1R LOPIK LOPI1E
INFO/EBBR/25L     100  FL160    0 0023   987 KUDA1R WOODY WODY7A
INFO/EHBK/21      103  FL070    H001 0026  1058 LOPI1R LOPIK V33 EHN
                                           P57 OSGOS OSGO1M


-(FPL-TRA055-IN
-B738/M-SDEEFGIRWXY/LB1
-LFPO1219
-N0360F230 DCT NURMO/N0360F220 UN874 VEKIN UN873 FERDI UY18 DENUT DCT
-EHAM0046 EHRD
-PBN/A1B1D1O1S2T1 DOF/200105 REG/PHHSI EET/EBUR0021 EHAA0030 SEL/GQBC RVR/200 OPR/TRA RMK/ACFT CERTIFIED NOISE STAGE 4 RMK/OCC CONTACT 0031206049999)

WEATHER BRIEFING - GENERATED 05 JAN 2020 12:04 UTC
--------------------------------------------------------------------------------

LFPO EHAM EHRD EHEH EBBR EHBK

--------------------------------------------------------------------------------
ORIGIN: LFPO (PARIS)
--------------------------------------------------------------------------------
LFPO 051130Z VRB01KT 9999 FEW023 BKN033 08/06 Q1036 NOSIG

LFPO 051100Z 0512/0618 28003KT 9999 BKN030
      BECMG 0600/0602 4000 BR OVC003
      TEMPO 0603/0610 1400 BR OVC002 PROB40
      TEMPO 0603/0608 0400 FG VV///
      BECMG 0610/0613 8000 NSW BKN008
      TEMPO 0613/0618 SCT010


--------------------------------------------------------------------------------
DESTINATION: EHAM (SCHIPHOL)
--------------------------------------------------------------------------------
EHAM 051155Z 21009KT 9999 FEW027 BKN033 08/05 Q1033 NOSIG

EHAM 051109Z 0512/0618 21010KT 9999 BKN030 PROB30
      TEMPO 0602/0607 4000 BR -DZ BKN005


--------------------------------------------------------------------------------
ALTERNATE: EHRD (ROTTERDAM)
--------------------------------------------------------------------------------
EHRD 051155Z AUTO 23008KT 9999 OVC031 08/04 Q1033 NOSIG

EHRD 051109Z 0512/0618 21010KT 9999 BKN030 PROB30
      TEMPO 0601/0606 4000 BR -DZ BKN005


--------------------------------------------------------------------------------
ALTERNATE: EHEH (EINDHOVEN)
--------------------------------------------------------------------------------
EHEH 051155Z AUTO 21006KT 9999 OVC035 07/05 Q1034 BLU 21006KT 9999 OVC035

EHEH 051129Z 0512/0618 22006KT 9999 BKN035 PROB30
      TEMPO 0600/0606 4000 -DZ BR SCT008 BKN012


--------------------------------------------------------------------------------
ALTERNATE: EBBR (BRUSSELS)
--------------------------------------------------------------------------------
EBBR 051150Z 21006KT 9999 BKN035 07/03 Q1035 NOSIG

EBBR 051116Z 0512/0618 21007KT 9999 BKN030=  EDDF 051100Z 0512/0618 20004KT 9999 SCT010 BKN040 PROB30
      TEMPO 0512/0514 4500 -RADZ BKN012
      BECMG 0518/0521 4000 BR
      BECMG 0523/0602 0800 FG BKN001
      TEMPO 0601/0612 0200 FZFG VV000 PROB30
      TEMPO 0612/0618 1500 BR BKN003


--------------------------------------------------------------------------------
ALTERNATE: EHBK (MAASTRICHT)
--------------------------------------------------------------------------------
EHBK 051155Z AUTO 22009KT 9999 OVC033 07/03 Q1035 NOSIG

EHBK 051117Z 0512/0618 23008KT 9999 BKN030


NOTAM BRIEFING - GENERATED 05 JAN 2020 12:04 UTC
--------------------------------------------------------------------------------

LFPO EHAM EHRD EHRD EHEH EBBR EHBK

--------------------------------------------------------------------------------
GLOBAL TRANSAVIA.COM VIRTUAL NOTAMS
--------------------------------------------------------------------------------
REF:NIL PLEASE CONTACT OPERATIONS IN CASE OF STRUCTURAL FLIGHTPLAN ERRORS ON FLIGHT-OPS@TRANSAVIA-VIRTUAL.COM
VALID:UFN

REF:NIL
PLEASE CHECK ACARS EVERY 10 MINUTES WHEN FLYING WITH SOUND OFF. AN NEW ACARS MESSAGE PRODUCE A SOUND SIGNAL UNTILL ITS READ. FLOWCONTROL DON'T RECEIVE MUCH REACTION ON OUTGOING ACARS MESSAGES ACCORDING FLIGHTSTATUS.
SOURCE: SPL/HV/OCC/
END VALID: UFN

REF:NIL
PLEASE CONTACT FLOWCONTROL IN CASE OF PROBLEMS WITH ROUTINGS
SOURCE: SPL/HV/OCC/
END VALID: UFN

REF:NIL
IN CASE OF ENGINE-OUT FLY V2 OR V2 20 MAX. UNTIL ABOVE MSA.
LEVEL-OFF AT AN ALTITUDE ROUNDED OFF TO THE FIRST 1000 FT OF THE HIGHEST MSA.
E.G: MSA EHAM; 1.7 AND 2.3 LEVEL-OFF 3000 FT. AFTER LANDING MAKE A REP TO OCC ON 131.975
SOURCE:SPL/HV/OCC
END VALID:UFN



flightlog:
Pilot : Ed van der Linden
Flight: TRA055
From  : LFPO Paris
To    : EHAM Schiphol

[FLIGHTLOG] 1.5.4
05-01-2020 12:10:09z, logging started
05-01-2020 12:10:22z, parking brake released
05-01-2020 12:11:08z, flaps set to 12%
05-01-2020 12:11:10z, flaps set to 25%
05-01-2020 12:11:11z, flaps set to 37%
05-01-2020 12:14:12z, take-off at 144 KIAS
05-01-2020 12:14:12z, pos report: 144 KIAS, 00 285 ft, heading 239, winds 164 @ 07 kts
05-01-2020 12:14:12z, flying OFFLINE
05-01-2020 12:14:12z, position: LFPO - Paris
05-01-2020 12:14:14z, retracted gear at 154 KIAS and 31 ft AGL
05-01-2020 12:15:56z, flaps set to 25%
05-01-2020 12:15:59z, flaps set to 0%
05-01-2020 12:25:08z, pos report: 306 KIAS, 25 074 ft, heading 042, winds 226 @ 66 kts
05-01-2020 12:40:09z, pos report: 276 KIAS, 24 109 ft, heading 008, winds 226 @ 63 kts
05-01-2020 12:55:10z, pos report: 225 KIAS, 05 681 ft, heading 043, winds 190 @ 15 kts
05-01-2020 12:56:26z, flaps set to 12%
05-01-2020 12:56:28z, flaps set to 25%
05-01-2020 12:56:36z, flaps set to 37%
05-01-2020 12:57:19z, flaps set to 50%
05-01-2020 12:57:23z, flaps set to 62%
05-01-2020 12:57:55z, intercepted localizer
05-01-2020 12:57:59z, lowered gear at 146 KIAS and 3470 ft AGL
05-01-2020 12:58:35z, flaps set to 75%
05-01-2020 13:01:15z, flaps set to 87%
05-01-2020 13:02:51z, touchdown: -76ft/m at 129 KIAS
05-01-2020 13:02:51z, pos report: 129 KIAS, 00 001 ft, heading 180, winds 131 @ 07 kts
05-01-2020 13:02:51z, flying OFFLINE
05-01-2020 13:02:51z, position: EHAM - Schiphol
05-01-2020 13:03:21z, flaps set to 75%
05-01-2020 13:03:23z, flaps set to 62%
05-01-2020 13:03:26z, flaps set to 37%
05-01-2020 13:03:29z, flaps set to 25%
05-01-2020 13:03:30z, flaps set to 12%
05-01-2020 13:03:31z, flaps set to 0%
05-01-2020 13:10:11z, pos report: 000 KIAS, 00 000 ft, heading 012, winds 125 @ 06 kts
05-01-2020 13:10:42z, parking brake set
05-01-2020 13:10:54z, logging ended
05-01-2020 13:10:54z, this flight was flown offline

©2009-2020, transavia virtual. All rights reserved. This website is only meant for simulation purposes.
This website is not owned by transavia, nor is transavia responsible for the content of this website.